Terminal Aerodrome Forecast
Issued by NWS Green Bay, WI

Home | Current Version | Previous Version | Graphics & Text | Print | Product List | Glossary On
Versions: 1 2 3 4 5 6 7 8 9 10 11 12 13 14 15 16 17 18 19 20 21 22 23 24 25 26 27 28 29 30 31 32 33 34 35 36 37 38
000
FTUS43 KGRB 252000 AAA
TAFGRB
TAF AMD
KGRB 252046Z 2521/2618 27008KT P6SM -SN BKN020
      TEMPO 2522/2524 SCT020
     FM260000 26004KT P6SM SCT020
     FM260700 00000KT 4SM BR BKN250
     FM261100 00000KT 2SM BR BKN200
     FM261600 07003KT 6SM HZ SCT090 BKN150=

USA.gov is the U.S. government's official web portal to all federal, state and local government web resources and services.